House Springs, Missouri
Current Conditions -  °F | °C
As of 11:54 AM on Saturday 25 Oct 2014 (Local Time) from KSUS Reporting Station
Clear Clear  
Wind Chill: 74°   Ceiling: Unl
Heat Index: 74°   Visibility: 10mi
Dew Point: 63°   Wind: 5mph
Humidity: 68%   Direction: NA
Pressure: 30.04"   Gusts: NA
Location:  38.41°N, 90.57°W
Report Text: KSUS 251654Z VRB04KT 10SM CLR 23/17 A3004 RMK AO2 SLP167 T02330172
Loading
Personal Weather Stations






























Interactive Weather Map
Tropical Storm Tracking
New forecast layout! Learn more

10-Day Weather Forecast

Advertisements
Track Severe Weather on mobile